Garber, Oklahoma
Current Conditions -  °F | °C
As of 2:50 PM on Tuesday 27 Jan 2015 (Local Time) from KWDG Reporting Station
Few Clouds Few Clouds  
Wind Chill: 77°   Ceiling: Unl
Heat Index: 77°   Visibility: 10mi
Dew Point: 37°   Wind: 13mph
Humidity: 24%   Direction: 180°S
Pressure: 30.04"   Gusts: 21mph
Location:  36.44°N, 97.59°W
Report Text: KWDG 272050Z 18011G18KT 10SM FEW250 25/03 A3004
Loading
Personal Weather Stations






























Interactive Weather Map New forecast layout! Learn more

10-Day Weather Forecast

Advertisements
Track Severe Weather on mobile